Time;durP1;ratioP1;P1;durP2;ratioP2;P2;SDS_P1;SDS_P2;PMS_P1;PMS_P2;Temp;Humidity;BMP_temperature;BMP_pressure;BME280_temperature;BME280_humidity;BME280_pressure;Samples;Min_cycle;Max_cycle;Signal;HPM_P1;HPM_P2
2021/05/17 00:00:48;;;;;;;;;3.75;3.75;;;;;20.51;38.03;98618.00;5007904;28;8862;-47
2021/05/17 00:03:13;;;;;;;;;2.80;2.80;;;;;20.47;38.13;98628.91;4986130;28;8942;-47
2021/05/17 00:05:39;;;;;;;;;4.00;3.50;;;;;20.43;38.14;98620.59;4979369;28;8981;-47
2021/05/17 00:08:05;;;;;;;;;4.00;4.00;;;;;20.44;38.35;98615.94;4983524;28;10975;-47
2021/05/17 00:10:32;;;;;;;;;4.00;4.00;;;;;20.48;38.19;98621.50;4981517;28;8893;-47
2021/05/17 00:12:57;;;;;;;;;4.60;4.00;;;;;20.41;38.26;98611.97;4980302;28;8834;-47
2021/05/17 00:15:23;;;;;;;;;3.00;3.00;;;;;20.26;38.27;98590.09;4994684;28;8823;-46
2021/05/17 00:17:52;;;;;;;;;3.75;3.00;;;;;20.37;38.23;98613.84;4995468;28;8799;-47
2021/05/17 00:20:18;;;;;;;;;2.60;2.60;;;;;20.30;38.18;98585.50;4998751;28;8799;-46
2021/05/17 00:22:44;;;;;;;;;3.20;3.20;;;;;20.42;38.21;98608.09;4995758;28;8771;-46
2021/05/17 00:25:11;;;;;;;;;4.00;3.80;;;;;20.39;38.31;98600.56;5003278;28;8830;-46
2021/05/17 00:27:37;;;;;;;;;3.00;3.00;;;;;20.61;37.99;98584.56;4998857;28;8811;-47
2021/05/17 00:30:04;;;;;;;;;3.00;3.00;;;;;20.50;38.42;98600.78;4995531;28;8838;-46
2021/05/17 00:32:30;;;;;;;;;2.80;2.80;;;;;20.32;38.29;98616.84;5001918;28;8792;-46
2021/05/17 00:34:55;;;;;;;;;4.00;4.00;;;;;20.36;38.36;98600.50;4993158;28;8787;-46
2021/05/17 00:37:22;;;;;;;;;4.00;4.00;;;;;20.33;38.25;98598.47;4998511;28;8814;-47
2021/05/17 00:39:47;;;;;;;;;4.00;4.00;;;;;20.17;38.39;98577.41;5001690;28;8830;-47
2021/05/17 00:42:13;;;;;;;;;4.00;4.00;;;;;20.27;38.52;98595.22;4997266;28;8792;-47
2021/05/17 00:44:40;;;;;;;;;3.50;3.50;;;;;20.33;38.30;98582.81;5006488;28;8823;-47
2021/05/17 00:47:11;;;;;;;;;3.00;3.00;;;;;20.29;38.42;98594.88;5000727;28;11458;-47
2021/05/17 00:49:36;;;;;;;;;4.00;4.00;;;;;20.24;38.31;98582.25;5003956;28;8788;-47
2021/05/17 00:52:02;;;;;;;;;3.00;3.00;;;;;20.27;38.38;98588.97;4999981;28;8819;-46
2021/05/17 00:54:28;;;;;;;;;3.00;3.00;;;;;20.27;38.28;98592.50;4998054;28;8808;-47
2021/05/17 00:56:53;;;;;;;;;3.00;3.00;;;;;20.26;38.36;98592.84;4997197;28;8772;-46
2021/05/17 00:59:19;;;;;;;;;3.00;3.00;;;;;20.38;38.28;98592.72;4999342;28;8922;-47
2021/05/17 01:01:44;;;;;;;;;3.00;3.00;;;;;20.51;37.96;98596.09;4998604;28;9625;-47
2021/05/17 01:04:09;;;;;;;;;3.00;3.00;;;;;20.31;38.28;98587.88;4999649;28;8788;-46
2021/05/17 01:06:36;;;;;;;;;3.50;3.50;;;;;20.22;38.46;98598.25;4998707;28;8831;-47
2021/05/17 01:09:03;;;;;;;;;3.00;3.00;;;;;20.18;38.35;98587.22;4982975;28;8813;-46
2021/05/17 01:11:29;;;;;;;;;4.00;4.00;;;;;20.16;38.52;98589.53;4986838;28;8818;-47
2021/05/17 01:13:56;;;;;;;;;3.00;3.00;;;;;20.12;38.59;98585.94;4998871;28;8796;-46
2021/05/17 01:16:23;;;;;;;;;4.00;4.00;;;;;20.11;38.53;98578.84;5000068;28;8905;-47
2021/05/17 01:18:51;;;;;;;;;3.00;3.00;;;;;20.10;38.69;98576.47;4999346;28;8778;-47
2021/05/17 01:21:18;;;;;;;;;2.80;2.80;;;;;20.11;38.61;98578.06;4999719;28;8811;-47
2021/05/17 01:23:54;;;;;;;;;3.00;3.00;;;;;20.12;38.54;98577.72;5000797;28;8790;-46
2021/05/17 01:26:22;;;;;;;;;3.20;3.20;;;;;20.12;38.47;98574.16;4996151;28;8806;-46
2021/05/17 01:28:49;;;;;;;;;3.40;3.40;;;;;20.06;38.48;98570.91;4998509;28;9006;-47
2021/05/17 01:31:15;;;;;;;;;3.80;3.80;;;;;20.05;38.49;98572.88;4999748;28;8827;-47
2021/05/17 01:33:43;;;;;;;;;4.00;4.00;;;;;20.36;38.16;98573.91;5002831;28;8816;-46
2021/05/17 01:36:10;;;;;;;;;3.80;3.80;;;;;20.25;38.36;98581.09;5000790;28;8804;-47
2021/05/17 01:38:38;;;;;;;;;3.40;3.40;;;;;20.18;38.57;98583.69;5001125;28;8868;-47
2021/05/17 01:41:07;;;;;;;;;4.00;4.00;;;;;20.17;38.47;98577.41;4995551;28;8810;-47
2021/05/17 01:43:37;;;;;;;;;3.00;3.00;;;;;20.05;38.56;98566.56;4997573;28;8817;-47
2021/05/17 01:46:03;;;;;;;;;3.20;3.20;;;;;20.08;38.47;98573.28;5001914;28;8806;-46
2021/05/17 01:48:29;;;;;;;;;4.00;4.00;;;;;20.09;38.61;98583.09;5002103;28;8796;-46
2021/05/17 01:50:55;;;;;;;;;4.20;4.00;;;;;20.09;38.63;98577.59;4998814;28;9529;-47
2021/05/17 01:53:22;;;;;;;;;3.00;3.00;;;;;20.07;38.51;98582.66;4988529;28;8809;-46
2021/05/17 01:55:48;;;;;;;;;3.00;3.00;;;;;20.03;38.60;98582.56;4976529;28;9581;-47
2021/05/17 01:58:24;;;;;;;;;4.00;4.00;;;;;19.99;38.73;98568.03;4975818;28;8811;-47
2021/05/17 02:00:50;;;;;;;;;4.00;4.00;;;;;20.00;38.68;98581.34;4995864;28;8861;-47
2021/05/17 02:03:15;;;;;;;;;3.00;3.00;;;;;19.93;38.80;98562.03;4998919;28;8800;-46
2021/05/17 02:05:41;;;;;;;;;3.20;3.20;;;;;20.09;38.55;98552.97;4997564;28;8796;-47
2021/05/17 02:08:11;;;;;;;;;3.80;3.80;;;;;20.26;38.20;98568.19;4999254;28;8819;-47
2021/05/17 02:10:38;;;;;;;;;3.00;3.00;;;;;20.08;38.46;98568.59;4995797;28;8768;-46
2021/05/17 02:13:06;;;;;;;;;3.60;3.60;;;;;19.99;38.65;98571.53;4997774;28;10226;-46
2021/05/17 02:15:33;;;;;;;;;4.00;4.00;;;;;20.31;38.22;98560.50;4997978;28;8800;-47
2021/05/17 02:18:07;;;;;;;;;4.00;4.00;;;;;20.04;38.52;98565.00;4982262;28;8905;-46
2021/05/17 02:20:36;;;;;;;;;4.00;4.00;;;;;20.01;38.67;98562.97;4979189;28;8881;-47
2021/05/17 02:23:02;;;;;;;;;3.00;3.00;;;;;20.01;38.58;98562.97;4981973;28;8885;-47
2021/05/17 02:25:28;;;;;;;;;3.00;3.00;;;;;20.01;38.68;98555.56;4997306;28;8739;-46
2021/05/17 02:27:55;;;;;;;;;3.80;3.80;;;;;19.55;38.56;98483.38;4999797;28;8869;-47
2021/05/17 02:30:21;;;;;;;;;2.00;2.00;;;;;20.04;38.71;98559.53;4995164;28;8940;-47
2021/05/17 02:32:47;;;;;;;;;3.00;3.00;;;;;20.03;38.60;98558.75;5000708;28;8812;-47
2021/05/17 02:35:13;;;;;;;;;3.75;3.75;;;;;19.99;38.69;98554.34;5000258;28;8803;-46
2021/05/17 02:37:38;;;;;;;;;3.20;3.20;;;;;20.05;38.61;98550.16;4998497;28;8791;-47
2021/05/17 02:40:05;;;;;;;;;3.00;3.00;;;;;20.29;38.34;98551.84;4997837;28;8820;-46
2021/05/17 02:42:34;;;;;;;;;3.00;3.00;;;;;20.11;38.38;98547.94;4990921;28;8804;-46
2021/05/17 02:45:02;;;;;;;;;3.00;3.00;;;;;20.26;38.13;98546.28;5002499;28;8796;-47
2021/05/17 02:47:32;;;;;;;;;3.00;3.00;;;;;20.06;38.40;98554.50;4996586;28;8899;-47
2021/05/17 02:49:58;;;;;;;;;3.00;3.00;;;;;19.97;38.76;98554.69;5002426;28;8823;-46
2021/05/17 02:52:23;;;;;;;;;3.00;3.00;;;;;19.99;38.69;98543.38;4996895;28;8812;-46
2021/05/17 02:55:00;;;;;;;;;3.00;3.00;;;;;19.99;38.66;98555.13;5002608;28;8957;-47
2021/05/17 02:57:48;;;;;;;;;3.00;3.00;;;;;19.97;38.66;98545.69;4992371;28;8918;-46
2021/05/17 03:00:21;;;;;;;;;3.00;2.00;;;;;19.92;38.68;98532.28;5001549;28;8784;-47
2021/05/17 03:02:58;;;;;;;;;4.00;4.00;;;;;19.96;38.56;98544.88;4999128;28;8793;-47
2021/05/17 03:05:24;;;;;;;;;3.40;3.00;;;;;19.97;38.65;98542.97;4999311;28;8769;-46
2021/05/17 03:08:13;;;;;;;;;3.40;3.40;;;;;19.94;38.59;98533.50;4999899;28;8759;-47
2021/05/17 03:10:41;;;;;;;;;3.00;3.00;;;;;19.98;38.82;98539.88;4997545;28;8936;-46
2021/05/17 03:13:10;;;;;;;;;4.00;3.60;;;;;20.28;38.27;98549.47;4991605;28;8816;-46
2021/05/17 03:15:36;;;;;;;;;2.00;2.00;;;;;20.05;38.30;98545.50;4997540;28;8791;-46
2021/05/17 03:18:03;;;;;;;;;2.00;2.00;;;;;19.97;38.50;98538.28;4999449;28;8823;-46
2021/05/17 03:20:28;;;;;;;;;3.00;3.00;;;;;19.92;38.72;98538.53;4986460;28;8810;-46
2021/05/17 03:22:55;;;;;;;;;3.00;3.00;;;;;19.91;38.80;98542.44;4991134;28;8911;-46
2021/05/17 03:25:29;;;;;;;;;2.80;2.80;;;;;19.90;38.70;98545.53;5003810;28;8764;-47
2021/05/17 03:27:54;;;;;;;;;3.00;3.00;;;;;19.88;38.73;98536.91;4995062;28;10081;-46
2021/05/17 03:30:20;;;;;;;;;3.00;3.00;;;;;19.87;38.63;98536.09;5004439;28;9070;-46
2021/05/17 03:32:46;;;;;;;;;3.40;3.40;;;;;20.27;38.20;98532.25;5004299;28;8781;-47
2021/05/17 03:35:12;;;;;;;;;2.00;2.00;;;;;19.70;38.15;98455.19;4993437;28;8801;-47
2021/05/17 03:37:37;;;;;;;;;3.00;3.00;;;;;20.07;38.42;98528.72;4981962;28;9925;-47
2021/05/17 03:40:04;;;;;;;;;3.25;3.25;;;;;20.02;38.44;98527.03;4980368;28;8822;-46
2021/05/17 03:42:29;;;;;;;;;3.20;3.20;;;;;19.99;38.57;98530.50;4991194;28;9522;-47
2021/05/17 03:44:54;;;;;;;;;2.75;2.75;;;;;20.20;38.30;98526.63;4998508;28;8787;-47
2021/05/17 03:47:20;;;;;;;;;3.00;3.00;;;;;20.18;38.33;98526.19;4999827;28;8974;-46
2021/05/17 03:49:45;;;;;;;;;3.50;3.50;;;;;20.06;38.40;98516.16;5001616;28;8927;-47
2021/05/17 03:52:11;;;;;;;;;2.00;2.00;;;;;19.97;38.48;98515.59;4999357;28;8792;-47
2021/05/17 03:54:36;;;;;;;;;2.25;2.25;;;;;19.94;38.77;98527.25;5003052;28;8824;-47
2021/05/17 03:57:04;;;;;;;;;2.00;2.00;;;;;19.90;38.65;98510.75;4992575;28;8969;-46
2021/05/17 03:59:31;;;;;;;;;2.20;2.20;;;;;19.89;38.70;98511.88;4997653;28;8785;-46
2021/05/17 04:01:56;;;;;;;;;2.00;2.00;;;;;19.89;38.71;98513.84;4992635;28;8906;-46
2021/05/17 04:04:23;;;;;;;;;2.25;2.25;;;;;19.86;38.58;98502.47;5002068;28;8775;-46
2021/05/17 04:06:57;;;;;;;;;3.40;3.40;;;;;19.86;38.59;98507.94;4998904;28;8787;-47
2021/05/17 04:14:51;;;;;;;;;3.00;3.00;;;;;19.83;38.60;98513.34;5000838;28;8935;-46
2021/05/17 04:17:17;;;;;;;;;3.50;3.50;;;;;19.94;38.62;98506.13;4997313;28;8826;-47
2021/05/17 04:19:42;;;;;;;;;3.00;3.00;;;;;20.07;38.31;98498.59;5004665;28;9531;-46
2021/05/17 04:22:07;;;;;;;;;3.00;3.00;;;;;19.91;38.48;98508.78;5000487;28;8870;-47
2021/05/17 04:24:33;;;;;;;;;2.25;2.00;;;;;19.84;38.82;98509.44;4996787;28;8806;-47
2021/05/17 04:26:58;;;;;;;;;2.75;2.75;;;;;19.90;38.70;98501.75;4994321;28;8835;-47
2021/05/17 04:29:23;;;;;;;;;2.00;2.00;;;;;19.90;38.49;98502.53;4997521;28;8926;-46
2021/05/17 04:31:49;;;;;;;;;4.00;4.00;;;;;19.88;38.72;98502.13;5002221;28;8804;-46
2021/05/17 04:34:14;;;;;;;;;3.00;3.00;;;;;19.88;38.58;98499.38;4998356;28;8878;-47
2021/05/17 04:36:40;;;;;;;;;3.50;3.50;;;;;19.84;38.75;98498.47;4981857;28;8841;-46
2021/05/17 04:39:05;;;;;;;;;2.00;2.00;;;;;19.92;38.66;98499.44;4998721;28;8910;-47
2021/05/17 04:41:31;;;;;;;;;3.00;3.00;;;;;19.39;38.85;98442.38;4994495;28;8818;-47
2021/05/17 04:43:56;;;;;;;;;3.00;3.00;;;;;19.81;38.80;98502.75;4998124;28;8789;-46
2021/05/17 04:46:22;;;;;;;;;2.75;2.00;;;;;19.81;38.72;98504.69;4993463;28;9546;-46
2021/05/17 04:48:50;;;;;;;;;3.00;3.00;;;;;19.88;38.53;98502.13;4975466;28;8801;-46
2021/05/17 04:51:17;;;;;;;;;3.00;3.00;;;;;20.07;38.43;98501.34;4995515;28;8950;-47
2021/05/17 04:53:42;;;;;;;;;3.20;3.00;;;;;19.98;38.42;98506.22;4996757;28;8818;-47
2021/05/17 04:56:07;;;;;;;;;3.00;3.00;;;;;19.85;38.65;98505.56;4994611;28;8823;-46
2021/05/17 04:58:33;;;;;;;;;3.00;3.00;;;;;19.49;38.60;98458.25;4996403;28;8802;-47
2021/05/17 05:00:58;;;;;;;;;3.00;3.00;;;;;19.71;38.66;98491.53;5003489;28;8931;-47
2021/05/17 05:03:23;;;;;;;;;3.00;3.00;;;;;19.81;38.78;98499.22;4998967;28;17284;-46
2021/05/17 05:05:49;;;;;;;;;3.00;3.00;;;;;19.78;38.77;98497.97;4999906;28;8820;-46
2021/05/17 05:08:14;;;;;;;;;3.75;3.75;;;;;19.76;38.72;98497.53;4991961;28;8799;-47
2021/05/17 05:10:40;;;;;;;;;2.00;2.00;;;;;19.78;38.67;98495.25;4975620;28;8798;-46
2021/05/17 05:13:06;;;;;;;;;3.00;3.00;;;;;19.72;38.68;98495.84;4978676;28;8810;-46
2021/05/17 05:15:31;;;;;;;;;3.00;3.00;;;;;19.71;38.93;98497.00;4984945;28;9587;-46
2021/05/17 05:17:56;;;;;;;;;3.00;3.00;;;;;19.67;39.04;98492.25;4980368;28;8838;-46
2021/05/17 05:20:22;;;;;;;;;3.50;3.50;;;;;19.75;38.67;98495.16;4993892;28;8788;-46
2021/05/17 05:22:47;;;;;;;;;3.00;3.00;;;;;20.29;38.17;98486.13;4997318;28;8779;-46
2021/05/17 05:25:13;;;;;;;;;2.75;2.75;;;;;20.62;37.57;98493.06;4999350;28;8820;-46
2021/05/17 05:27:44;;;;;;;;;2.00;2.00;;;;;20.28;37.78;98489.22;4994609;28;8806;-47
2021/05/17 05:30:26;;;;;;;;;3.20;3.20;;;;;19.99;38.30;98488.66;5001969;28;8828;-47
2021/05/17 05:33:37;;;;;;;;;2.60;2.60;;;;;19.90;38.48;98488.84;4977785;28;8787;-46
2021/05/17 05:35:39;;;;;;;;;3.00;3.00;;;;;19.83;38.46;98488.72;4969375;28;8782;-46
2021/05/17 05:38:05;;;;;;;;;3.00;3.00;;;;;19.80;38.61;98487.47;4982129;28;8783;-46
2021/05/17 05:40:30;;;;;;;;;3.00;3.00;;;;;19.71;38.69;98489.59;4978932;28;8825;-46
2021/05/17 05:42:55;;;;;;;;;3.00;3.00;;;;;19.71;38.78;98483.31;4998120;28;8804;-46
2021/05/17 05:45:21;;;;;;;;;3.00;3.00;;;;;19.67;38.85;98488.72;4999492;28;8788;-47
2021/05/17 05:47:46;;;;;;;;;3.00;3.00;;;;;19.61;38.99;98487.41;4998771;28;8875;-46
2021/05/17 05:50:12;;;;;;;;;2.50;2.25;;;;;19.92;38.71;98472.09;4990514;28;8815;-47
2021/05/17 05:52:37;;;;;;;;;3.00;3.00;;;;;19.85;38.61;98475.44;4982476;28;8835;-46
2021/05/17 05:55:05;;;;;;;;;3.80;3.80;;;;;19.70;38.55;98459.84;4995176;28;8777;-46
2021/05/17 05:58:04;;;;;;;;;3.00;3.00;;;;;20.03;38.32;98465.69;4996831;28;8780;-46
2021/05/17 06:00:29;;;;;;;;;4.00;4.00;;;;;19.95;38.13;98465.91;4998895;28;8796;-47
2021/05/17 06:02:55;;;;;;;;;3.00;3.00;;;;;19.75;38.52;98445.91;4998658;28;8809;-47
2021/05/17 06:05:20;;;;;;;;;3.50;3.50;;;;;19.87;38.43;98459.47;4997882;28;8937;-46
2021/05/17 06:07:45;;;;;;;;;3.50;3.50;;;;;19.86;38.61;98457.91;4992352;28;8767;-47
2021/05/17 06:10:11;;;;;;;;;3.25;3.25;;;;;20.00;38.30;98460.94;4979217;28;8817;-47
2021/05/17 06:12:39;;;;;;;;;2.00;2.00;;;;;19.95;38.23;98460.44;4968428;28;8920;-47
2021/05/17 06:15:06;;;;;;;;;3.00;3.00;;;;;19.95;38.31;98455.72;4975286;28;8801;-46
2021/05/17 06:17:31;;;;;;;;;3.40;2.80;;;;;19.92;38.43;98456.44;4978137;28;8856;-47
2021/05/17 06:19:57;;;;;;;;;3.00;3.00;;;;;19.91;38.38;98454.88;4982476;28;8779;-47
2021/05/17 06:22:26;;;;;;;;;3.00;3.00;;;;;19.91;38.29;98449.41;4983463;28;8907;-46
2021/05/17 06:24:53;;;;;;;;;2.80;2.80;;;;;19.90;38.37;98452.50;5002563;28;9387;-47
2021/05/17 06:27:19;;;;;;;;;2.20;2.20;;;;;19.88;38.51;98455.59;4991701;28;8796;-47
2021/05/17 06:29:45;;;;;;;;;3.00;3.00;;;;;20.03;38.28;98448.44;4999202;28;8979;-47
2021/05/17 06:32:11;;;;;;;;;3.00;3.00;;;;;19.95;38.01;98427.59;4997618;28;8796;-46
2021/05/17 06:34:40;;;;;;;;;2.00;2.00;;;;;19.94;38.02;98447.88;4996145;28;8762;-47
2021/05/17 06:37:06;;;;;;;;;2.60;2.60;;;;;19.89;38.31;98450.91;4981182;28;8817;-46
2021/05/17 06:39:31;;;;;;;;;3.00;3.00;;;;;19.86;38.47;98447.75;4996222;28;8820;-46
2021/05/17 06:41:57;;;;;;;;;2.00;2.00;;;;;19.82;38.45;98444.16;4993501;28;8803;-47
2021/05/17 06:44:22;;;;;;;;;3.00;3.00;;;;;19.68;38.41;98424.63;4998571;28;8784;-47
2021/05/17 06:46:48;;;;;;;;;3.00;3.00;;;;;19.82;38.39;98449.63;4987956;28;11480;-47
2021/05/17 06:49:13;;;;;;;;;3.00;3.00;;;;;19.83;38.62;98445.72;4976447;28;8893;-47
2021/05/17 06:51:38;;;;;;;;;3.00;3.00;;;;;19.83;38.66;98453.91;4999388;28;9539;-46
2021/05/17 06:54:04;;;;;;;;;3.25;3.25;;;;;19.81;38.46;98450.75;5004655;28;8788;-47
2021/05/17 06:59:05;;;;;;;;;3.20;3.20;;;;;19.79;38.60;98449.53;5000020;28;8789;-47
2021/05/17 07:01:30;;;;;;;;;2.40;2.40;;;;;19.80;38.72;98445.63;4998691;28;8772;-46
2021/05/17 07:03:57;;;;;;;;;3.25;3.25;;;;;20.02;38.41;98442.19;5005196;28;8885;-47
2021/05/17 07:06:28;;;;;;;;;3.00;3.00;;;;;19.90;38.46;98444.28;4997566;28;11701;-46
2021/05/17 07:14:10;;;;;;;;;3.00;3.00;;;;;19.25;38.56;98372.56;4998307;28;8779;-46
2021/05/17 07:16:35;;;;;;;;;3.25;3.25;;;;;19.67;38.69;98428.53;5002696;28;8868;-46
2021/05/17 07:19:00;;;;;;;;;3.50;3.50;;;;;19.72;38.65;98436.47;4998124;28;8824;-43
2021/05/17 07:24:11;;;;;;;;;3.00;3.00;;;;;19.68;38.74;98436.38;4998994;28;8791;-43
2021/05/17 07:26:36;;;;;;;;;2.50;2.50;;;;;19.67;38.76;98421.13;4998954;28;9933;-45
2021/05/17 07:29:03;;;;;;;;;3.00;3.00;;;;;19.66;38.69;98427.75;4991039;28;8815;-46
2021/05/17 07:31:29;;;;;;;;;3.20;3.20;;;;;19.67;38.74;98425.81;4994481;28;8785;-46
2021/05/17 07:33:54;;;;;;;;;3.00;3.00;;;;;19.67;38.77;98428.53;4999645;28;8805;-46
2021/05/17 07:36:20;;;;;;;;;3.00;3.00;;;;;19.90;38.48;98431.38;4996552;28;8788;-46
2021/05/17 07:38:46;;;;;;;;;3.00;3.00;;;;;19.84;38.50;98430.88;4985697;28;8927;-46
2021/05/17 07:41:12;;;;;;;;;3.00;3.00;;;;;19.71;38.62;98429.41;4985208;28;8805;-46
2021/05/17 07:43:37;;;;;;;;;3.00;3.00;;;;;19.62;38.72;98421.41;4995566;28;8800;-46
2021/05/17 07:46:02;;;;;;;;;3.00;3.00;;;;;19.59;38.85;98422.09;4996609;28;11580;-45
2021/05/17 07:48:28;;;;;;;;;4.00;4.00;;;;;19.49;39.16;98422.69;4979405;28;8822;-45
2021/05/17 07:50:53;;;;;;;;;3.50;3.50;;;;;19.48;39.04;98419.13;4995777;28;8915;-45
2021/05/17 07:53:19;;;;;;;;;2.25;2.25;;;;;19.49;39.07;98423.47;4997191;28;8826;-46
2021/05/17 07:55:47;;;;;;;;;3.00;3.00;;;;;19.06;39.07;98345.19;4997066;28;8808;-46
2021/05/17 07:58:12;;;;;;;;;3.00;3.00;;;;;19.53;39.00;98409.88;4998526;28;16323;-46
2021/05/17 08:00:37;;;;;;;;;3.00;3.00;;;;;19.44;38.92;98401.88;5000728;28;8820;-46
2021/05/17 08:03:03;;;;;;;;;2.75;2.75;;;;;19.50;39.13;98407.84;4998029;28;8792;-46
2021/05/17 08:05:30;;;;;;;;;2.00;2.00;;;;;19.51;39.17;98406.72;4994877;28;8929;-46
2021/05/17 08:07:56;;;;;;;;;3.00;3.00;;;;;19.70;38.90;98408.69;4988309;28;8801;-46
2021/05/17 08:10:22;;;;;;;;;3.00;3.00;;;;;19.86;38.22;98389.50;4974470;28;8779;-46
2021/05/17 08:12:47;;;;;;;;;3.00;3.00;;;;;19.81;38.70;98406.19;4994923;28;8797;-46
2021/05/17 08:15:12;;;;;;;;;3.00;3.00;;;;;19.76;38.71;98409.22;4998143;28;8854;-46
2021/05/17 08:17:38;;;;;;;;;3.50;3.50;;;;;19.62;38.89;98404.97;4999768;28;9568;-46
2021/05/17 08:20:04;;;;;;;;;3.00;3.00;;;;;19.66;38.72;98405.88;4994500;28;8787;-46
2021/05/17 08:22:29;;;;;;;;;2.00;2.00;;;;;19.63;38.67;98400.28;4994415;28;8872;-46
2021/05/17 08:24:55;;;;;;;;;3.00;3.00;;;;;19.74;38.67;98411.53;4995420;28;8815;-46
2021/05/17 08:27:22;;;;;;;;;3.00;3.00;;;;;19.72;38.65;98397.34;4996035;28;8811;-46
2021/05/17 08:29:48;;;;;;;;;2.20;2.20;;;;;19.68;38.86;98400.00;4995203;28;9747;-43
2021/05/17 08:32:13;;;;;;;;;3.00;3.00;;;;;19.67;38.69;98399.22;4992167;28;8895;-43
2021/05/17 08:34:39;;;;;;;;;3.00;3.00;;;;;19.67;38.66;98421.13;4997908;28;9327;-44
2021/05/17 08:37:05;;;;;;;;;3.00;3.00;;;;;19.63;38.68;98394.81;4992672;28;8812;-43
2021/05/17 08:39:30;;;;;;;;;2.00;2.00;;;;;19.68;38.76;98400.81;4977894;28;9557;-43
2021/05/17 08:41:57;;;;;;;;;3.00;3.00;;;;;19.87;38.65;98396.53;4976086;28;8823;-43
2021/05/17 08:44:24;;;;;;;;;3.00;3.00;;;;;19.87;38.60;98396.53;4970665;28;8826;-43
2021/05/17 08:46:50;;;;;;;;;2.60;2.60;;;;;19.76;38.57;98390.06;4976418;28;9764;-43
2021/05/17 08:49:16;;;;;;;;;2.25;2.25;;;;;19.78;38.88;98387.75;4980319;28;8861;-45
2021/05/17 08:51:42;;;;;;;;;3.00;3.00;;;;;19.74;38.83;98389.63;4999633;28;8917;-45
2021/05/17 08:54:09;;;;;;;;;2.75;2.75;;;;;19.81;41.21;98395.25;4995650;28;8929;-48
2021/05/17 08:56:38;;;;;;;;;3.00;3.00;;;;;19.85;39.72;98355.06;4991737;28;10599;-48
2021/05/17 08:59:04;;;;;;;;;2.00;2.00;;;;;19.99;38.39;98369.00;4993828;28;8784;-46
2021/05/17 09:01:30;;;;;;;;;4.00;3.40;;;;;19.88;39.08;98419.22;4995721;28;8782;-47
2021/05/17 09:04:06;;;;;;;;;3.00;3.00;;;;;19.81;39.11;98398.78;4998788;28;8815;-47
2021/05/17 09:06:48;;;;;;;;;4.00;3.60;;;;;19.84;39.18;98387.09;4997900;28;8941;-47
2021/05/17 09:09:36;;;;;;;;;4.00;4.00;;;;;20.13;38.79;98395.09;4999310;28;8848;-46
2021/05/17 09:12:06;;;;;;;;;3.60;3.60;;;;;20.30;39.38;98386.41;4996867;28;8788;-48
2021/05/17 09:14:32;;;;;;;;;3.00;3.00;;;;;20.48;40.09;98392.19;4993983;28;8792;-47
2021/05/17 09:17:02;;;;;;;;;3.00;3.00;;;;;20.54;39.54;98389.94;4998966;28;8780;-48
2021/05/17 09:19:31;;;;;;;;;3.00;3.00;;;;;20.48;40.87;98388.69;4998011;28;8787;-48
2021/05/17 09:22:08;;;;;;;;;3.00;3.00;;;;;20.53;39.56;98385.63;4979494;28;8799;-49
2021/05/17 09:24:49;;;;;;;;;2.40;2.40;;;;;20.39;39.79;98383.44;4999401;28;8795;-46
2021/05/17 09:27:23;;;;;;;;;3.00;3.00;;;;;20.23;39.89;98383.53;4997783;28;8790;-46
2021/05/17 09:29:51;;;;;;;;;3.40;3.40;;;;;20.14;39.81;98380.22;4995333;28;8828;-46
2021/05/17 09:32:19;;;;;;;;;3.00;3.00;;;;;20.10;39.23;98385.63;5001230;28;8804;-46
2021/05/17 09:35:06;;;;;;;;;2.40;2.40;;;;;20.17;39.04;98374.03;4997156;28;8781;-46
2021/05/17 09:37:48;;;;;;;;;3.00;3.00;;;;;20.17;39.16;98374.81;4992438;28;8771;-46
2021/05/17 09:40:28;;;;;;;;;4.20;4.00;;;;;20.16;39.16;98378.72;4999657;28;8894;-47
2021/05/17 09:43:07;;;;;;;;;3.00;3.00;;;;;20.16;39.00;98373.25;4995570;28;8817;-47
2021/05/17 09:45:35;;;;;;;;;3.00;3.00;;;;;20.15;39.01;98379.09;4995582;28;9597;-47
2021/05/17 09:48:07;;;;;;;;;2.00;2.00;;;;;20.30;38.75;98371.91;4995391;28;8797;-47
2021/05/17 09:50:59;;;;;;;;;3.00;3.00;;;;;20.28;38.88;98375.03;4997245;28;8820;-47
2021/05/17 09:53:34;;;;;;;;;2.80;2.80;;;;;20.20;39.00;98378.78;4996243;28;8931;-47
2021/05/17 09:56:05;;;;;;;;;3.00;3.00;;;;;20.15;38.96;98373.59;4992206;28;8854;-47
2021/05/17 09:58:43;;;;;;;;;4.60;3.00;;;;;20.12;39.02;98366.13;4993595;28;8878;-47
2021/05/17 10:01:17;;;;;;;;;2.40;2.40;;;;;20.12;38.74;98369.66;4993368;28;8841;-47
2021/05/17 10:03:47;;;;;;;;;2.60;2.60;;;;;20.15;38.81;98365.41;4994311;28;8870;-47
2021/05/17 10:06:24;;;;;;;;;2.00;2.00;;;;;20.12;38.76;98364.19;5000685;28;8795;-46
2021/05/17 10:08:50;;;;;;;;;2.00;2.00;;;;;19.93;38.85;98334.09;4991148;28;8790;-46
2021/05/17 10:11:18;;;;;;;;;2.60;2.60;;;;;20.09;38.91;98361.34;4998184;28;8793;-46
2021/05/17 10:13:44;;;;;;;;;2.00;2.00;;;;;20.11;38.85;98370.81;4989670;28;8883;-46
2021/05/17 10:16:13;;;;;;;;;2.20;2.20;;;;;20.08;38.85;98368.00;4981186;28;8787;-46
2021/05/17 10:18:40;;;;;;;;;2.00;2.00;;;;;20.09;38.66;98366.84;4995020;28;9586;-46
2021/05/17 10:21:09;;;;;;;;;2.00;2.00;;;;;20.34;38.44;98368.09;4999792;28;8820;-46
2021/05/17 10:23:36;;;;;;;;;2.00;2.00;;;;;20.38;38.24;98368.16;4999479;28;8951;-46
2021/05/17 10:26:16;;;;;;;;;2.00;2.00;;;;;20.21;38.33;98363.94;4987484;28;8803;-46
2021/05/17 10:28:48;;;;;;;;;2.00;2.00;;;;;19.97;38.61;98343.97;4980399;28;9142;-46
2021/05/17 10:31:16;;;;;;;;;2.00;2.00;;;;;20.07;38.63;98363.66;4984859;28;9716;-46
2021/05/17 10:33:55;;;;;;;;;1.00;1.00;;;;;20.04;38.69;98355.03;5001464;28;8813;-46
2021/05/17 10:36:52;;;;;;;;;2.00;2.00;;;;;20.05;38.63;98359.38;4995174;28;8795;-46
2021/05/17 10:39:19;;;;;;;;;2.00;2.00;;;;;20.08;38.67;98355.09;5000089;28;8800;-46
2021/05/17 10:42:11;;;;;;;;;2.20;2.20;;;;;20.08;38.55;98357.06;4977966;28;8781;-46
2021/05/17 10:48:35;;;;;;;;;2.00;2.00;;;;;20.04;38.60;98359.72;4988133;28;8803;-46
2021/05/17 10:51:20;;;;;;;;;2.00;2.00;;;;;20.08;38.39;98351.56;4997519;28;8796;-45
2021/05/17 10:53:59;;;;;;;;;3.00;2.60;;;;;20.28;38.30;98350.38;4979327;28;8839;-46
2021/05/17 10:56:59;;;;;;;;;2.00;2.00;;;;;20.30;38.02;98353.56;4985337;28;8831;-46
2021/05/17 11:02:34;;;;;;;;;2.00;2.00;;;;;20.13;38.33;98352.06;4996545;28;8800;-46
2021/05/17 11:05:19;;;;;;;;;1.60;1.60;;;;;20.10;38.43;98347.31;4985452;28;8822;-46
2021/05/17 11:08:00;;;;;;;;;2.00;2.00;;;;;20.10;38.47;98350.03;4981341;28;9474;-46
2021/05/17 11:10:25;;;;;;;;;1.00;1.00;;;;;20.11;38.23;98353.59;4994888;28;8772;-46
2021/05/17 11:13:00;;;;;;;;;2.00;2.00;;;;;20.12;38.40;98349.69;4998500;28;9550;-46
2021/05/17 11:15:28;;;;;;;;;1.00;1.00;;;;;20.14;38.33;98347.38;4997506;28;8784;-45
2021/05/17 11:18:16;;;;;;;;;2.00;2.00;;;;;20.05;38.35;98348.41;4995130;28;8829;-46
2021/05/17 11:23:36;;;;;;;;;1.25;1.25;;;;;20.09;38.33;98350.41;4996574;28;8815;-46
2021/05/17 11:28:47;;;;;;;;;1.00;1.00;;;;;20.48;37.81;98353.06;4992608;28;8813;-46
2021/05/17 11:33:55;;;;;;;;;2.00;2.00;;;;;20.33;37.92;98350.06;4997625;28;8753;-45
2021/05/17 11:36:46;;;;;;;;;1.00;1.00;;;;;20.24;37.93;98344.03;4999096;28;8796;-46
2021/05/17 11:39:23;;;;;;;;;2.00;2.00;;;;;20.27;38.06;98339.81;4997797;28;8847;-46
2021/05/17 11:41:57;;;;;;;;;1.00;1.00;;;;;20.28;38.01;98346.84;4994413;28;8788;-46
2021/05/17 11:44:52;;;;;;;;;1.00;1.00;;;;;20.25;38.06;98342.91;4998187;28;8803;-46
2021/05/17 11:47:24;;;;;;;;;2.00;2.00;;;;;20.36;37.85;98338.38;4993500;28;8795;-47
2021/05/17 11:49:51;;;;;;;;;1.00;1.00;;;;;19.90;37.68;98259.00;4996579;28;8800;-47
2021/05/17 11:52:20;;;;;;;;;2.00;2.00;;;;;20.45;37.65;98340.88;4990971;28;8797;-47
2021/05/17 11:54:53;;;;;;;;;2.80;2.80;;;;;20.38;37.86;98349.75;4994033;28;8798;-45
2021/05/17 11:57:26;;;;;;;;;1.60;1.60;;;;;20.00;37.84;98287.72;4993549;28;8787;-46
2021/05/17 11:59:52;;;;;;;;;1.20;1.00;;;;;20.59;38.45;98343.06;5000758;28;8781;-46
2021/05/17 12:02:18;;;;;;;;;1.00;1.00;;;;;20.58;37.91;98345.03;4994780;28;8899;-46
2021/05/17 12:04:45;;;;;;;;;2.00;2.00;;;;;20.42;38.00;98345.16;4996183;28;8780;-46
2021/05/17 12:07:18;;;;;;;;;2.40;2.00;;;;;20.45;38.00;98345.56;4989771;28;8812;-46
2021/05/17 12:09:45;;;;;;;;;2.00;2.00;;;;;20.41;38.03;98343.56;4977980;28;8829;-47
2021/05/17 12:12:22;;;;;;;;;1.80;1.60;;;;;20.33;38.32;98344.59;4976163;28;8865;-43
2021/05/17 12:14:53;;;;;;;;;1.00;1.00;;;;;20.33;38.31;98349.28;4991771;28;9533;-43
2021/05/17 12:17:21;;;;;;;;;1.00;1.00;;;;;20.28;38.53;98346.84;4997971;28;8815;-43
2021/05/17 12:19:53;;;;;;;;;1.20;1.00;;;;;20.23;38.60;98348.72;4999213;28;8805;-44